Austin, Kansas
Current Conditions -  °F | °C
As of 4:09 AM on Sunday 21 Dec 2014 (Local Time) from KCNU Reporting Station
Haze Haze  
Wind Chill: 34°   Ceiling: 900
Heat Index: 40°   Visibility: 5mi
Dew Point: 38°   Wind: 9mph
Humidity: 93%   Direction: 210°SSW
Pressure: 30.08"   Gusts: NA
Location:  37.6378°N, 95.4622°W
Report Text: KCNU 211009Z AUTO 21008KT 5SM BR OVC009 04/03 A3008 RMK AO2 CIG 007V012 T00440033
Loading
Personal Weather Stations






























Interactive Weather Map New forecast layout! Learn more

10-Day Weather Forecast

Advertisements
Track Severe Weather on mobile